• Join FlightAware (Why Join?)
  • Login
  • US Flag 
08:22PM EST


 

Airport Tracker/Info


-or-


 

Live Flight TrackerFlight Track Log ✈ AAY843 ✈ 31-Mar-2014 ✈ KSYR - KPIE

Flight Track Log - Related Links

Times and Time Zones

All times are in EDT time to prevent confusion due to time zone crossing. See the AAY843 flight status page for this flight to view local times or setup timezone preferences in your user account.

Time Position Orientation Groundspeed Altitude Reporting Facility
EDT Latitude Longitude Course Direction KTS MPH feet Rate Location/Type
06:56PM 43.1267 -76.1217 315° West 160 184 1,200  Level Boston Center
06:56PM 43.1353 -76.1333 315° West 159 183 2,000 2,220 Climbing Boston Center
06:57PM 43.1253 -76.2178 261° West 272 313 4,200 1,920 Climbing Boston Center
06:58PM 43.0944 -76.2597 225° Southwest 261 300 5,300 2,400 Climbing Boston Center
06:59PM 43.0331 -76.3375 223° Southwest 293 337 8,300 2,220 Climbing Boston Center
07:00PM 42.9558 -76.3964 209° Southwest 311 358 10,000 900 Climbing Boston Center
07:01PM 42.8778 -76.4564 209° Southwest 317 365 10,200 840 Climbing Boston Center
07:02PM 42.7742 -76.5253 206° Southwest 380 437 11,800 2,040 Climbing Boston Center
07:03PM 42.6656 -76.5722 198° South 405 466 14,500 2,460 Climbing Boston Center
07:04PM 42.5500 -76.5911 187° South 414 476 16,900 2,040 Climbing Boston Center
07:05PM 42.4317 -76.6075 186° South 419 482 18,700 1,740 Climbing Boston Center
07:06PM 42.3092 -76.6253 186° South 434 499 20,500 1,560 Climbing Boston Center
07:07PM 42.1631 -76.6517 188° South 452 520 22,000 1,500 Climbing New York Center
07:08PM 42.0225 -76.6725 186° South 458 527 23,600 1,500 Climbing New York Center
07:09PM 41.8903 -76.6942 187° South 474 545 25,100 1,500 Climbing New York Center
07:10PM 41.7603 -76.7106 185° South 474 545 26,700 1,500 Climbing New York Center
07:11PM 41.6281 -76.7319 187° South 480 552 28,100 1,440 Climbing New York Center
07:12PM 41.4936 -76.7533 187° South 485 558 29,600 1,140 Climbing New York Center
07:13PM 41.3758 -76.7733 187° South 485 558 30,400 1,020 Climbing New York Center
07:14PM 41.2453 -76.8031 190° South 485 558 31,700 840 Climbing New York Center
07:15PM 41.1183 -76.8414 193° South 480 552 32,100 120 Climbing New York Center
07:16PM 40.9933 -76.8797 193° South 475 547 32,000 -60 Descending New York Center
07:17PM 40.8719 -76.9319 198° South 475 547 32,000  Level New York Center
07:18PM 40.7481 -76.9867 199° South 470 541 32,000  Level New York Center
07:19PM 40.6114 -77.0508 200° South 475 547 32,000  Level New York Center
07:20PM 40.4875 -77.1050 198° South 475 547 32,000  Level New York Center
07:21PM 40.3642 -77.1536 197° South 475 547 32,000  Level New York Center
07:22PM 40.2403 -77.2075 198° South 475 547 32,000  Level New York Center
07:23PM 40.1419 -77.2528 199° South 475 547 32,000  Level New York Center
07:24PM 39.9983 -77.3206 200° South 469 540 32,000  Level New York Center
07:26PM 39.7247 -77.4342 198° South 470 541 32,000  Level Washington Center
07:27PM 39.6008 -77.4875 198° South 470 541 32,000  Level Washington Center
07:28PM 39.4769 -77.5408 198° South 470 541 32,100 480 Climbing Washington Center
07:29PM 39.3553 -77.5939 199° South 470 541 33,000 420 Climbing Washington Center
07:30PM 39.2356 -77.6442 198° South 470 541 33,000  Level Washington Center
07:31PM 39.1117 -77.6969 198° South 470 541 33,000  Level Washington Center
07:32PM 38.9919 -77.7469 198° South 470 541 33,000  Level Washington Center
07:33PM 38.8808 -77.7889 196° South 464 534 33,000  Level Washington Center
07:34PM 38.7472 -77.7983 183° South 469 540 33,000  Level Washington Center
07:35PM 38.6200 -77.7944 179° South 469 540 33,000 360 Level Washington Center
07:36PM 38.4908 -77.7958 180° South 469 540 33,800 480 Climbing Washington Center
07:37PM 38.3689 -77.8428 197° South 463 533 34,000 60 Climbing Washington Center
07:38PM 38.2736 -77.9322 216° Southwest 433 498 34,000  Level Washington Center
07:39PM 38.1819 -78.0325 221° Southwest 433 498 34,000  Level Washington Center
07:40PM 38.0903 -78.1272 219° Southwest 433 498 34,000  Level Washington Center
07:41PM 37.9858 -78.2239 216° Southwest 433 498 34,000  Level Washington Center
07:42PM 37.8881 -78.3097 215° Southwest 428 493 34,000  Level Washington Center
07:43PM 37.7922 -78.4008 217° Southwest 436 502 34,000  Level Washington Center
07:44PM 37.6961 -78.4892 216° Southwest 436 502 34,000  Level Washington Center
07:45PM 37.6128 -78.5675 217° Southwest 436 502 34,000  Level Washington Center
07:46PM 37.5147 -78.6553 215° Southwest 441 507 34,000  Level Washington Center
07:47PM 37.4164 -78.7428 215° Southwest 441 507 34,000  Level Washington Center
07:48PM 37.3203 -78.8303 216° Southwest 441 507 34,000  Level Washington Center
07:49PM 37.2261 -78.9200 217° Southwest 441 507 34,000  Level Washington Center
07:50PM 37.1211 -79.0172 216° Southwest 441 507 34,000  Level Washington Center
07:51PM 37.0206 -79.1036 214° Southwest 441 507 34,000  Level Washington Center
07:52PM 36.9261 -79.1903 216° Southwest 441 507 34,000  Level Washington Center
07:54PM 36.7367 -79.3606 216° Southwest 455 524 34,000  Level Atlanta Center
07:55PM 36.6397 -79.4467 215° Southwest 441 507 34,000  Level Atlanta Center
07:56PM 36.5550 -79.5239 216° Southwest 429 494 34,000  Level Atlanta Center
07:57PM 36.4558 -79.6094 215° Southwest 429 494 34,000  Level Atlanta Center
07:58PM 36.3589 -79.6947 215° Southwest 434 499 34,000  Level Atlanta Center
07:59PM 36.2658 -79.7794 216° Southwest 434 499 34,000  Level Atlanta Center
08:00PM 36.1564 -79.8728 215° Southwest 434 499 34,000  Level Atlanta Center
08:01PM 36.0594 -79.9600 216° Southwest 434 499 34,000  Level Atlanta Center
08:02PM 35.9528 -80.0217 205° Southwest 434 499 34,000  Level Atlanta Center
08:03PM 35.8381 -80.0811 203° Southwest 434 499 34,000  Level Atlanta Center
08:04PM 35.7372 -80.1269 200° South 440 506 34,000  Level Atlanta Center
08:05PM 35.6161 -80.1917 203° Southwest 440 506 34,000  Level Atlanta Center
08:06PM 35.5033 -80.2503 203° Southwest 440 506 34,000  Level Atlanta Center
08:07PM 35.3925 -80.3064 202° Southwest 440 506 34,000  Level Atlanta Center
08:08PM 35.2794 -80.3625 202° Southwest 440 506 34,000  Level Atlanta Center
08:10PM 35.1142 -80.4414 201° Southwest 433 498 34,000  Level Jacksonville Center
08:11PM 35.0047 -80.4978 203° Southwest 433 498 34,000  Level Jacksonville Center
08:12PM 34.8933 -80.5539 202° Southwest 433 498 34,000  Level Jacksonville Center
08:13PM 34.7733 -80.6128 202° Southwest 433 498 34,000  Level Jacksonville Center
08:14PM 34.6617 -80.6689 202° Southwest 433 498 34,000  Level Jacksonville Center
08:15PM 34.5583 -80.7194 202° Southwest 440 506 34,000  Level Jacksonville Center
08:16PM 34.4447 -80.7778 203° Southwest 440 506 34,000  Level Jacksonville Center
08:17PM 34.3350 -80.8306 202° Southwest 446 513 34,000  Level Jacksonville Center
08:18PM 34.2314 -80.8808 202° Southwest 424 488 34,000  Level Jacksonville Center
08:19PM 34.1194 -80.9311 200° South 424 488 34,000  Level Jacksonville Center
08:20PM 34.0078 -80.9836 201° Southwest 429 494 34,000  Level Jacksonville Center
08:21PM 33.9000 -81.0336 201° Southwest 429 494 34,000  Level Jacksonville Center
08:22PM 33.7900 -81.0883 202° Southwest 429 494 34,000  Level Jacksonville Center
08:23PM 33.6803 -81.1431 203° Southwest 429 494 34,000  Level Jacksonville Center
08:24PM 33.5683 -81.1975 202° Southwest 435 501 34,000  Level Jacksonville Center
08:25PM 33.4583 -81.2519 202° Southwest 435 501 34,000  Level Jacksonville Center
08:26PM 33.3464 -81.3061 202° Southwest 435 501 34,000  Level Jacksonville Center
08:27PM 33.2386 -81.3603 203° Southwest 435 501 34,000  Level Jacksonville Center
08:28PM 33.1244 -81.4167 202° Southwest 435 501 34,000  Level Jacksonville Center
08:29PM 33.0167 -81.4706 203° Southwest 435 501 34,000  Level Jacksonville Center
08:30PM 32.9044 -81.5244 202° Southwest 435 501 34,000  Level Jacksonville Center
08:31PM 32.7944 -81.5778 202° Southwest 430 495 34,000  Level Jacksonville Center
08:32PM 32.6739 -81.6389 203° Southwest 430 495 34,000  Level Jacksonville Center
08:33PM 32.5719 -81.6772 198° South 425 489 34,000  Level Jacksonville Center
08:34PM 32.4408 -81.7061 191° South 438 504 34,000  Level Jacksonville Center
08:35PM 32.3325 -81.7297 190° South 438 504 34,000  Level Jacksonville Center
08:36PM 32.2033 -81.7583 191° South 438 504 34,000  Level Jacksonville Center
08:37PM 32.0844 -81.7917 193° South 443 510 34,000  Level Jacksonville Center
08:38PM 31.9783 -81.8175 192° South 443 510 34,000  Level Jacksonville Center
08:39PM 31.8469 -81.8458 190° South 449 517 34,000  Level Jacksonville Center
08:40PM 31.7364 -81.8692 190° South 449 517 34,000  Level Jacksonville Center
08:41PM 31.6053 -81.8997 191° South 449 517 34,000  Level Jacksonville Center
08:42PM 31.4864 -81.9303 192° South 449 517 34,000  Level Jacksonville Center
08:43PM 31.3758 -81.9558 191° South 449 517 34,000  Level Jacksonville Center
08:44PM 31.2425 -81.9861 191° South 449 517 34,000  Level Jacksonville Center
08:45PM 31.1236 -82.0142 191° South 449 517 34,000  Level Jacksonville Center
08:46PM 30.9986 -82.0394 190° South 449 517 34,000  Level Jacksonville Center
08:47PM 30.8778 -82.0697 192° South 449 517 34,000  Level Jacksonville Center
08:48PM 30.7567 -82.0997 192° South 449 517 34,000  Level Jacksonville Center
08:49PM 30.6339 -82.1247 190° South 449 517 34,000  Level Jacksonville Center
08:50PM 30.5253 -82.1450 189° South 449 517 34,000  Level Jacksonville Center
08:51PM 30.4044 -82.1747 192° South 443 510 34,000  Level Jacksonville Center
08:52PM 30.2814 -82.1997 190° South 448 516 34,000  Level Jacksonville Center
08:53PM 30.1583 -82.2294 192° South 448 516 34,000  Level Jacksonville Center
08:54PM 30.0372 -82.2567 191° South 448 516 34,000 -1,140 Level Jacksonville Center
08:56PM 29.7892 -82.3158 192° South 449 517 30,700 -1,800 Descending Jacksonville Center
08:57PM 29.6744 -82.3381 190° South 444 511 28,600 -2,040 Descending Jacksonville Center
08:58PM 29.5575 -82.3553 187° South 433 498 26,700 -1,620 Descending Jacksonville Center
08:59PM 29.4406 -82.3442 175° South 422 486 25,400 -900 Descending Jacksonville Center
09:00PM 29.3300 -82.3281 173° South 416 479 25,000 -900 Descending Jacksonville Center
09:01PM 29.2131 -82.3097 172° South 421 484 23,700 -2,100 Descending Jacksonville Center
09:02PM 29.0961 -82.3008 176° South 426 490 20,800 -3,060 Descending Jacksonville Center
09:03PM 28.9833 -82.2897 175° South 416 479 17,600 -2,520 Descending Jacksonville Center
09:05PM 28.7333 -82.2667 175° South 361 415 13,000 -2,100 Descending Tampa TRACON
09:06PM 28.6500 -82.2500 170° South 348 400 11,100 -1,500 Descending Tampa TRACON
09:07PM 28.5667 -82.3000 208° Southwest 340 391 10,100 -600 Descending Tampa TRACON
09:08PM 28.5000 -82.3833 228° Southwest 334 384 10,000 -60 Descending Tampa TRACON
09:09PM 28.4500 -82.4667 236° Southwest 337 388 10,000 -60 Level Tampa TRACON
09:10PM 28.3833 -82.5500 228° Southwest 319 367 9,900 -660 Descending Tampa TRACON
09:11PM 28.3167 -82.6167 221° Southwest 278 320 8,700 -1,440 Descending Tampa TRACON
09:12PM 28.2667 -82.6833 230° Southwest 282 325 7,000 -1,620 Descending Tampa TRACON
09:13PM 28.2000 -82.7167 204° Southwest 280 322 5,600 -1,560 Descending Tampa TRACON
09:14PM 28.1333 -82.7667 213° Southwest 273 314 4,100 -1,440 Descending Tampa TRACON
09:15PM 28.0667 -82.7833 192° South 262 302 2,800 -720 Descending Tampa TRACON
09:16PM 28.0000 -82.7667 168° South 254 292 2,600 -180 Descending Tampa TRACON
09:17PM 27.9333 -82.7667 180° South 203 234 2,500 -300 Descending Tampa TRACON
09:18PM 27.8833 -82.7667 180° South 205 236 2,000 -480 Descending Tampa TRACON
09:19PM 27.8333 -82.7333 149° Southeast 177 204 1,500 -420 Descending Tampa TRACON
09:20PM 27.8333 -82.6833 90° East 172 198 1,200 -540 Descending Tampa TRACON
09:21PM 27.8833 -82.6833 360° North 143 165 500 -720 Descending Tampa TRACON
09:23PM 27.9000 -82.6833 310° West  Level FlightAware Approximate